Grafton, Massachusetts
Current Conditions -  °F | °C
As of 10:32 AM on Monday 24 Nov 2014 (Local Time) from KORH Reporting Station
Light Rain Light Rain  
Wind Chill: 60°   Ceiling: 500
Heat Index: 60°   Visibility: 3mi
Dew Point: 58°   Wind: 17mph
Humidity: 93%   Direction: 200°SSW
Pressure: 29.7"   Gusts: 25mph
Location:  42.21°N, 71.69°W
Report Text: KORH 241532Z 20015G22KT 3SM R11/6000VP6000FT -RA BR OVC005 16/14 A2970 RMK AO2 P0004 T01560144 $
Loading
Personal Weather Stations






























Interactive Weather Map New forecast layout! Learn more

10-Day Weather Forecast

Advertisements
Track Severe Weather on mobile